ADDS METAR Data INFO
IDs: Format: Raw Decoded Include TAF

Data at: 0546 UTC 22 Nov 2017

KOCH 220531Z AUTO 00000KT 10SM SCT009 BKN030 13/12 A3014 RMK AO2
KOCH 220518Z AUTO 01004KT 10SM SCT009 BKN028 13/12 A3013 RMK AO2
KOCH 220456Z AUTO VRB05KT 10SM BKN028 BKN036 BKN046 13/12 A3013 RMK AO2 RAB28E43 SLP208 P0000 T01330122
KOCH 220447Z AUTO VRB03KT 10SM BKN028 BKN037 OVC046 13/12 A3013 RMK AO2 RAB28E43 P0000
KOCH 220356Z AUTO 36003KT 10SM BKN034 OVC060 14/12 A3012 RMK AO2 SLP203 T01390122
KOCH 220348Z AUTO 36003KT 10SM BKN030 BKN037 OVC060 14/12 A3012 RMK AO2
KOCH 220309Z AUTO 36006KT 10SM BKN027 OVC041 14/12 A3011 RMK AO2
KOCH 220256Z AUTO VRB04KT 10SM FEW029 OVC043 14/12 A3010 RMK AO2 SLP195 T01390122 53032
KOCH 220156Z AUTO 00000KT 10SM SCT029 14/12 A3005 RMK AO2 SLP179 T01390122
KOCH 220056Z AUTO 06003KT 10SM OVC025 15/13 A3002 RMK AO2 SLP171 T01500128
KOCH 212356Z AUTO 07004KT 10SM FEW012 BKN022 OVC029 16/13 A3000 RMK AO2 SLP165 60000 T01560128 10167 20156 52019
KOCH 212256Z AUTO VRB03KT 10SM SCT013 OVC018 16/13 A2998 RMK AO2 SLP158 T01560128
KOCH 212156Z AUTO 10006KT 10SM OVC016 16/13 A2996 RMK AO2 SLP151 T01610133
KOCH 212144Z AUTO 09006KT 10SM OVC016 16/13 A2996 RMK AO2
KOCH 212056Z AUTO 10007KT 10SM BKN010 OVC029 16/13 A2994 RMK AO2 RAE13 SLP145 P0000 60000 T01610133 58003
KOCH 211956Z AUTO 08007KT 10SM -RA OVC010 16/13 A2995 RMK AO2 RAB47 SLP149 P0000 T01560128
KOCH 211856Z AUTO 13008KT 10SM OVC010 16/13 A2995 RMK AO2 SLP146 T01610128
KOCH 211756Z AUTO 12009KT 10SM OVC010 16/13 A2995 RMK AO2 SLP148 T01560128 10156 20044 58004
KOCH 211656Z AUTO 12007KT 10SM OVC010 14/11 A2996 RMK AO2 SLP151 T01390106
KOCH 211637Z AUTO 13007KT 10SM BKN010 BKN023 OVC050 14/10 A2997 RMK AO2
KOCH 211603Z AUTO 13006KT 10SM FEW009 SCT028 BKN034 13/09 A2998 RMK AO2
KOCH 211556Z AUTO 15006KT 10SM SCT015 BKN028 BKN034 13/09 A2998 RMK AO2 SLP157 T01330094
KOCH 211534Z AUTO 15006KT 10SM BKN015 12/08 A2998 RMK AO2
KOCH 211456Z AUTO 13005KT 10SM SCT020 SCT025 BKN036 11/07 A2996 RMK AO2 SLP152 T01110067 50004
KOCH 211356Z AUTO 00000KT 10SM BKN018 BKN050 08/06 A2997 RMK AO2 SLP154 T00830061
KOCH 211256Z AUTO 12004KT 10SM FEW024 BKN050 06/04 A2995 RMK AO2 SLP146 T00560044
KOCH 211156Z AUTO 00000KT 10SM SCT024 OVC048 04/04 A2995 RMK AO2 SLP147 T00440039 10072 20033 58008
KOCH 211056Z AUTO 00000KT 10SM CLR 03/02 A2996 RMK AO2 SLP151 T00330022
KOCH 210956Z AUTO 00000KT 10SM CLR 04/03 A2997 RMK AO2 SLP155 T00390028
KOCH 210856Z AUTO 00000KT 10SM CLR 04/03 A2998 RMK AO2 SLP155 T00390028 56019
KOCH 210756Z AUTO 00000KT 10SM CLR 04/03 A2999 RMK AO2 SLP160 T00390028
KOCH 210656Z AUTO 13003KT 10SM CLR 06/03 A3001 RMK AO2 SLP167 T00610033
KOCH 210625Z AUTO 00000KT 10SM CLR 05/03 A3003 RMK AO2 TSNO
KOCH 210616Z AUTO 11003KT 2 1/2SM HZ CLR 06/03 A3003 RMK AO2
KOCH 210556Z AUTO 14003KT 10SM CLR 07/03 A3003 RMK AO2 SLP175 T00720033 10117 20050 401721006 57006
KOCH 210456Z AUTO 00000KT 10SM CLR 07/03 A3004 RMK AO2 SLP178 T00670033 TSNO
KOCH 210431Z AUTO 13003KT 10SM CLR 08/03 A3004 RMK AO2
KOCH 210356Z AUTO 13003KT 10SM CLR 08/03 A3005 RMK AO2 SLP179 T00830033
KOCH 210256Z AUTO 14004KT 10SM CLR 09/03 A3005 RMK AO2 SLP181 T00890033 58004
KOCH 210156Z AUTO 14005KT 10SM CLR 09/04 A3006 RMK AO2 SLP185 T00940039
KOCH 210056Z AUTO 13004KT 10SM CLR 11/04 A3007 RMK AO2 SLP190 T01060039
KOCH 202356Z AUTO 13005KT 10SM CLR 11/04 A3007 RMK AO2 SLP188 T01110044 10172 20106 58007
KOCH 202256Z AUTO 14004KT 10SM CLR 15/03 A3008 RMK AO2 SLP191 T01500028
KOCH 202156Z AUTO 18006KT 10SM CLR 17/01 A3008 RMK AO2 SLP191 T01670011
KOCH 202056Z AUTO 19009KT 10SM CLR 17/00 A3009 RMK AO2 SLP193 T01670000 56041
KOCH 201956Z AUTO 21011KT 10SM CLR 17/00 A3012 RMK AO2 SLP205 T01670000
KOCH 201856Z AUTO 19009KT 10SM CLR 16/01 A3016 RMK AO2 SLP217 T01560006
KOCH 201756Z AUTO 17004KT 10SM CLR 15/01 A3021 RMK AO2 SLP234 T01500006 10156 21006 58017